Time;durP1;ratioP1;P1;durP2;ratioP2;P2;SDS_P1;SDS_P2;PMS_P1;PMS_P2;Temp;Humidity;BMP_temperature;BMP_pressure;BME280_temperature;BME280_humidity;BME280_pressure;Samples;Min_cycle;Max_cycle;Signal;HPM_P1;HPM_P2
2024/01/15 00:00:40;;;;;;;160.02;50.05;;;0.60;99.90;;;;;;5027543;28;20052;-74
2024/01/15 00:03:07;;;;;;;123.75;46.22;;;0.60;99.90;;;;;;5013368;28;20052;-73
2024/01/15 00:05:34;;;;;;;123.00;44.20;;;0.60;99.90;;;;;;5033712;28;20033;-73
2024/01/15 00:08:01;;;;;;;130.13;43.85;;;0.60;99.90;;;;;;5034943;28;20143;-74
2024/01/15 00:10:27;;;;;;;153.50;50.22;;;0.60;99.90;;;;;;5031663;28;20050;-75
2024/01/15 00:12:54;;;;;;;166.30;55.20;;;0.60;99.90;;;;;;5036002;28;21017;-73
2024/01/15 00:15:22;;;;;;;104.07;40.75;;;0.60;99.90;;;;;;5011467;28;20235;-75
2024/01/15 00:17:48;;;;;;;126.53;46.13;;;0.60;99.90;;;;;;5017682;28;20056;-73
2024/01/15 00:20:15;;;;;;;158.63;50.17;;;0.60;99.90;;;;;;5010243;28;20171;-74
2024/01/15 00:22:42;;;;;;;146.95;45.33;;;0.60;99.90;;;;;;5032572;28;20103;-73
2024/01/15 00:25:09;;;;;;;140.38;47.03;;;0.60;99.90;;;;;;5035402;28;20041;-75
2024/01/15 00:27:35;;;;;;;158.52;50.35;;;0.60;99.90;;;;;;5012459;28;20541;-73
2024/01/15 00:30:04;;;;;;;168.45;53.97;;;0.70;99.90;;;;;;5034933;28;20048;-74
2024/01/15 00:32:31;;;;;;;142.63;50.33;;;0.70;99.90;;;;;;5031887;28;20556;-75
2024/01/15 00:34:58;;;;;;;159.15;49.97;;;0.60;99.90;;;;;;5034010;28;20136;-73
2024/01/15 00:37:25;;;;;;;151.35;48.60;;;0.70;99.90;;;;;;4997244;28;20068;-76
2024/01/15 00:39:52;;;;;;;155.38;54.70;;;0.60;99.90;;;;;;5036892;28;20061;-75
2024/01/15 00:42:19;;;;;;;171.90;51.20;;;0.60;99.90;;;;;;5028367;28;20041;-75
2024/01/15 00:44:46;;;;;;;158.63;53.47;;;0.70;99.90;;;;;;5032162;28;20048;-76
2024/01/15 00:47:12;;;;;;;137.57;45.38;;;0.70;99.90;;;;;;5038776;28;20534;-73
2024/01/15 00:49:41;;;;;;;145.35;47.38;;;0.60;99.90;;;;;;5036687;28;20032;-75
2024/01/15 00:52:08;;;;;;;160.80;54.55;;;0.60;99.90;;;;;;5036390;28;20072;-76
2024/01/15 00:54:34;;;;;;;139.23;46.30;;;0.60;99.90;;;;;;5019679;28;20049;-74
2024/01/15 00:57:01;;;;;;;107.18;42.40;;;0.60;99.90;;;;;;5034177;28;20049;-74
2024/01/15 00:59:28;;;;;;;143.10;48.53;;;0.60;99.90;;;;;;5022334;28;20045;-77
2024/01/15 01:01:55;;;;;;;144.63;47.58;;;0.60;99.90;;;;;;5029135;28;20053;-75
2024/01/15 01:04:25;;;;;;;112.03;40.22;;;0.70;99.90;;;;;;5047134;28;20049;-74
2024/01/15 01:06:53;;;;;;;133.35;46.55;;;0.70;99.90;;;;;;5040265;28;20052;-75
2024/01/15 01:09:30;;;;;;;141.23;46.70;;;0.60;99.90;;;;;;5033433;28;20069;-74
2024/01/15 01:12:00;;;;;;;143.77;50.17;;;0.60;99.90;;;;;;5055551;28;20040;-75
2024/01/15 01:14:27;;;;;;;141.85;46.67;;;0.60;99.90;;;;;;5054597;28;20056;-74
2024/01/15 01:16:55;;;;;;;137.63;45.55;;;0.60;99.90;;;;;;5055715;28;20588;-75
2024/01/15 01:19:22;;;;;;;115.28;42.42;;;0.60;99.90;;;;;;5049055;28;20108;-77
2024/01/15 01:21:50;;;;;;;145.77;48.00;;;0.60;99.90;;;;;;5033510;28;20495;-75
2024/01/15 01:24:17;;;;;;;107.78;36.63;;;0.60;99.90;;;;;;5030182;28;20040;-76
2024/01/15 01:26:45;;;;;;;97.32;35.92;;;0.60;99.90;;;;;;5035435;28;20040;-75
2024/01/15 01:29:12;;;;;;;110.90;36.65;;;0.60;99.90;;;;;;5017872;28;20041;-76
2024/01/15 01:31:46;;;;;;;112.38;37.45;;;0.60;99.90;;;;;;5027210;28;20068;-74
2024/01/15 01:34:16;;;;;;;120.80;42.58;;;0.70;99.90;;;;;;5031131;28;20078;-76
2024/01/15 01:36:45;;;;;;;132.63;46.85;;;0.70;99.90;;;;;;5010675;28;20048;-74
2024/01/15 01:39:12;;;;;;;135.60;47.83;;;0.70;99.90;;;;;;5035721;28;20044;-73
2024/01/15 01:41:39;;;;;;;122.70;43.72;;;0.70;99.90;;;;;;5061735;28;20044;-75
2024/01/15 01:44:07;;;;;;;134.73;45.20;;;0.70;99.90;;;;;;5035651;28;20041;-75
2024/01/15 01:46:39;;;;;;;135.07;46.35;;;0.60;99.90;;;;;;5030340;28;20075;-73
2024/01/15 01:49:07;;;;;;;126.57;42.33;;;0.60;99.90;;;;;;5034476;28;20693;-73
2024/01/15 01:51:37;;;;;;;114.00;41.15;;;0.60;99.90;;;;;;5034014;28;20100;-74
2024/01/15 01:54:06;;;;;;;127.95;46.47;;;0.60;99.90;;;;;;5014492;28;20052;-75
2024/01/15 01:56:33;;;;;;;126.15;44.67;;;0.60;99.90;;;;;;5031613;28;20055;-75
2024/01/15 01:59:03;;;;;;;143.18;46.70;;;0.60;99.90;;;;;;5038287;28;20056;-75
2024/01/15 02:01:31;;;;;;;118.32;40.38;;;0.60;99.90;;;;;;5031988;28;20052;-74
2024/01/15 02:03:59;;;;;;;127.50;43.45;;;0.60;99.90;;;;;;5028005;28;20672;-73
2024/01/15 02:06:27;;;;;;;102.05;36.75;;;0.60;99.90;;;;;;5030337;28;20036;-74
2024/01/15 02:08:54;;;;;;;120.60;41.78;;;0.60;99.90;;;;;;5033913;28;20049;-75
2024/01/15 02:11:21;;;;;;;120.75;43.15;;;0.60;99.90;;;;;;5032085;28;20045;-75
2024/01/15 02:13:48;;;;;;;99.97;37.03;;;0.60;99.90;;;;;;5030026;28;20057;-76
2024/01/15 02:16:15;;;;;;;107.03;35.42;;;0.60;99.90;;;;;;5026262;28;20099;-74
2024/01/15 02:18:47;;;;;;;129.73;45.30;;;0.60;99.90;;;;;;5033482;28;20048;-75
2024/01/15 02:21:14;;;;;;;119.60;43.25;;;0.60;99.90;;;;;;5029128;28;20109;-73
2024/01/15 02:23:41;;;;;;;122.07;40.08;;;0.60;99.90;;;;;;5032039;28;20047;-73
2024/01/15 02:26:08;;;;;;;136.40;47.58;;;0.50;99.90;;;;;;5047637;28;20032;-74
2024/01/15 02:28:37;;;;;;;78.15;28.95;;;0.50;99.90;;;;;;5030519;28;20510;-73
2024/01/15 02:31:04;;;;;;;130.00;49.53;;;0.50;99.90;;;;;;5027545;28;20064;-73
2024/01/15 02:33:31;;;;;;;130.20;44.67;;;0.50;99.90;;;;;;5027595;28;20052;-74
2024/01/15 02:35:58;;;;;;;115.93;40.97;;;0.60;99.90;;;;;;5007228;28;20132;-73
2024/01/15 02:38:25;;;;;;;124.82;45.15;;;0.60;99.90;;;;;;5023559;28;20077;-73
2024/01/15 02:40:52;;;;;;;101.75;36.17;;;0.60;99.90;;;;;;5028631;28;20053;-75
2024/01/15 02:43:19;;;;;;;124.43;41.78;;;0.60;99.90;;;;;;5027167;28;20052;-76
2024/01/15 02:45:46;;;;;;;80.10;32.92;;;0.50;99.90;;;;;;5030899;28;20198;-75
2024/01/15 02:48:13;;;;;;;95.35;33.85;;;0.50;99.90;;;;;;5035512;28;20055;-76
2024/01/15 02:50:40;;;;;;;90.50;34.70;;;0.60;99.90;;;;;;5028913;28;20041;-74
2024/01/15 02:53:07;;;;;;;116.28;40.13;;;0.50;99.90;;;;;;5030676;28;20064;-76
2024/01/15 02:55:34;;;;;;;121.65;43.38;;;0.50;99.90;;;;;;5027555;28;20044;-75
2024/01/15 02:58:01;;;;;;;120.47;43.90;;;0.60;99.90;;;;;;5029872;28;20060;-74
2024/01/15 03:00:27;;;;;;;109.85;35.05;;;0.60;99.90;;;;;;5045789;28;20042;-75
2024/01/15 03:02:55;;;;;;;113.15;40.75;;;0.60;99.90;;;;;;5024642;28;20049;-74
2024/01/15 03:05:22;;;;;;;109.50;35.78;;;0.60;99.90;;;;;;5041901;28;20053;-72
2024/01/15 03:07:49;;;;;;;108.13;39.67;;;0.60;99.90;;;;;;5057664;28;20101;-71
2024/01/15 03:10:15;;;;;;;87.38;35.22;;;0.70;99.90;;;;;;5041143;28;20060;-75
2024/01/15 03:12:42;;;;;;;114.65;39.10;;;0.70;99.90;;;;;;5061502;28;20041;-72
2024/01/15 03:15:09;;;;;;;101.30;36.03;;;0.70;99.90;;;;;;5015090;28;20052;-73
2024/01/15 03:17:36;;;;;;;92.47;38.35;;;0.70;99.90;;;;;;5031336;28;20051;-73
2024/01/15 03:20:03;;;;;;;76.18;31.40;;;0.70;99.90;;;;;;5034973;28;20072;-74
2024/01/15 03:22:30;;;;;;;99.30;33.40;;;0.70;99.90;;;;;;5027782;28;20535;-72
2024/01/15 03:24:57;;;;;;;75.75;31.02;;;0.70;99.90;;;;;;5025793;28;20083;-73
2024/01/15 03:27:25;;;;;;;86.07;34.05;;;0.70;99.90;;;;;;5026430;28;20052;-73
2024/01/15 03:29:52;;;;;;;88.47;34.78;;;0.60;99.90;;;;;;5029510;28;20049;-73
2024/01/15 03:32:19;;;;;;;74.25;28.92;;;0.60;99.90;;;;;;5019733;28;20106;-73
2024/01/15 03:34:47;;;;;;;96.68;36.75;;;0.60;99.90;;;;;;5050122;28;20048;-73
2024/01/15 03:37:14;;;;;;;78.57;29.55;;;0.60;99.90;;;;;;5029696;28;20041;-75
2024/01/15 03:39:41;;;;;;;99.53;37.13;;;0.70;99.90;;;;;;5029447;28;20056;-73
2024/01/15 03:42:08;;;;;;;99.00;39.58;;;0.60;99.90;;;;;;5029019;28;20048;-74
2024/01/15 03:44:35;;;;;;;93.75;37.70;;;0.70;99.90;;;;;;5025006;28;20643;-74
2024/01/15 03:47:01;;;;;;;98.65;35.08;;;0.70;99.90;;;;;;5029244;28;20185;-73
2024/01/15 03:49:28;;;;;;;77.18;29.45;;;0.70;99.90;;;;;;5033423;28;20041;-74
2024/01/15 03:51:55;;;;;;;78.18;30.92;;;0.70;99.90;;;;;;5031060;28;20042;-73
2024/01/15 03:54:22;;;;;;;92.20;33.08;;;0.60;99.90;;;;;;5028369;28;20045;-73
2024/01/15 03:56:49;;;;;;;70.53;29.17;;;0.70;99.90;;;;;;5021476;28;20594;-73
2024/01/15 03:59:16;;;;;;;84.72;34.10;;;0.60;99.90;;;;;;5032311;28;20037;-75
2024/01/15 04:01:49;;;;;;;99.40;35.20;;;0.60;99.90;;;;;;5030096;28;20048;-73
2024/01/15 04:04:18;;;;;;;83.95;31.70;;;0.60;99.90;;;;;;5024439;28;20041;-74
2024/01/15 04:06:45;;;;;;;67.70;27.08;;;0.70;99.90;;;;;;5025413;28;20048;-73
2024/01/15 04:09:13;;;;;;;78.60;32.97;;;0.70;99.90;;;;;;5030348;28;20052;-75
2024/01/15 04:11:40;;;;;;;92.85;34.58;;;0.70;99.90;;;;;;5013094;28;20048;-74
2024/01/15 04:14:07;;;;;;;68.78;30.40;;;0.70;99.90;;;;;;5022223;28;20056;-74
2024/01/15 04:16:34;;;;;;;65.28;26.67;;;0.70;99.90;;;;;;5029034;28;20041;-74
2024/01/15 04:19:01;;;;;;;81.00;30.23;;;0.70;99.90;;;;;;5030974;28;20123;-74
2024/01/15 04:21:28;;;;;;;59.28;23.63;;;0.70;99.90;;;;;;5022632;28;20048;-74
2024/01/15 04:23:55;;;;;;;73.93;33.50;;;0.70;99.90;;;;;;5026193;28;20052;-74
2024/01/15 04:26:22;;;;;;;71.53;31.40;;;0.70;99.90;;;;;;5023311;28;20138;-75
2024/01/15 04:28:49;;;;;;;79.55;31.65;;;0.70;99.90;;;;;;5009278;28;20132;-74
2024/01/15 04:31:29;;;;;;;87.60;33.35;;;0.70;99.90;;;;;;4995564;28;20683;-74
2024/01/15 04:33:56;;;;;;;69.05;32.17;;;0.70;99.90;;;;;;4997270;28;20052;-75
2024/01/15 04:36:23;;;;;;;68.78;25.60;;;0.70;99.90;;;;;;5003057;28;20046;-74
2024/01/15 04:38:50;;;;;;;76.82;31.08;;;0.80;99.90;;;;;;5017542;28;20131;-73
2024/01/15 04:41:17;;;;;;;71.15;30.55;;;0.70;99.90;;;;;;5008121;28;20056;-74
2024/01/15 04:43:44;;;;;;;89.30;34.13;;;0.70;99.90;;;;;;4995747;28;20048;-72
2024/01/15 04:46:10;;;;;;;67.53;28.63;;;0.80;99.90;;;;;;5009945;28;20114;-74
2024/01/15 04:48:37;;;;;;;73.47;31.70;;;0.70;99.90;;;;;;5008664;28;20045;-73
2024/01/15 04:51:05;;;;;;;72.45;30.33;;;0.80;99.90;;;;;;5019080;28;20651;-74
2024/01/15 04:53:34;;;;;;;69.32;31.63;;;0.80;99.90;;;;;;5022890;28;20103;-74
2024/01/15 04:56:01;;;;;;;61.67;28.55;;;0.70;99.90;;;;;;5017394;28;20045;-75
2024/01/15 04:58:28;;;;;;;62.95;26.35;;;0.70;99.90;;;;;;5013401;28;20463;-74
2024/01/15 05:00:54;;;;;;;79.32;30.83;;;0.70;99.90;;;;;;5023410;28;20044;-75
2024/01/15 05:03:21;;;;;;;68.78;27.35;;;0.70;99.90;;;;;;5017185;28;20323;-75
2024/01/15 05:05:48;;;;;;;66.00;27.50;;;0.70;99.90;;;;;;5001913;28;20076;-73
2024/01/15 05:08:15;;;;;;;82.93;31.55;;;0.70;99.90;;;;;;5024663;28;20047;-73
2024/01/15 05:10:42;;;;;;;82.18;33.70;;;0.70;99.90;;;;;;5031254;28;20693;-74
2024/01/15 05:13:08;;;;;;;79.53;33.60;;;0.70;99.90;;;;;;5021965;28;20059;-73
2024/01/15 05:15:35;;;;;;;73.13;30.58;;;0.60;99.90;;;;;;5019432;28;20048;-73
2024/01/15 05:18:02;;;;;;;75.25;31.55;;;0.60;99.90;;;;;;5006782;28;20159;-75
2024/01/15 05:20:29;;;;;;;73.93;33.30;;;0.60;99.90;;;;;;5024943;28;20061;-74
2024/01/15 05:22:56;;;;;;;91.55;36.40;;;0.60;99.90;;;;;;5020085;28;20041;-75
2024/01/15 05:25:22;;;;;;;85.65;36.63;;;0.70;99.90;;;;;;5027754;28;20041;-74
2024/01/15 05:27:49;;;;;;;90.40;35.65;;;0.70;99.90;;;;;;5004166;28;20402;-74
2024/01/15 05:30:16;;;;;;;78.45;32.88;;;0.60;99.90;;;;;;5013484;28;20474;-74
2024/01/15 05:32:43;;;;;;;86.05;34.83;;;0.60;99.90;;;;;;4998769;28;20665;-74
2024/01/15 05:35:10;;;;;;;92.85;35.92;;;0.60;99.90;;;;;;5004241;28;20053;-74
2024/01/15 05:37:37;;;;;;;89.00;37.33;;;0.60;99.90;;;;;;5000717;28;20045;-75
2024/01/15 05:40:04;;;;;;;101.35;36.80;;;0.60;99.90;;;;;;5028032;28;20550;-75
2024/01/15 05:42:31;;;;;;;86.65;34.50;;;0.60;99.90;;;;;;5019665;28;20124;-73
2024/01/15 05:44:59;;;;;;;92.90;36.63;;;0.50;99.90;;;;;;5005518;28;20536;-74
2024/01/15 05:47:26;;;;;;;72.68;31.00;;;0.60;99.90;;;;;;5032823;28;20462;-74
2024/01/15 05:49:53;;;;;;;100.13;36.65;;;0.50;99.90;;;;;;5020391;28;20796;-73
2024/01/15 05:52:21;;;;;;;79.22;33.28;;;0.50;99.90;;;;;;5025344;28;20046;-74
2024/01/15 05:54:49;;;;;;;100.15;35.88;;;0.50;99.90;;;;;;5027112;28;20537;-74
2024/01/15 05:57:16;;;;;;;84.72;33.42;;;0.50;99.90;;;;;;5026881;28;20037;-74
2024/01/15 05:59:44;;;;;;;72.63;30.08;;;0.60;99.90;;;;;;5020112;28;20482;-74
2024/01/15 06:02:11;;;;;;;60.92;29.23;;;0.50;99.90;;;;;;4998749;28;20057;-74
2024/01/15 06:04:38;;;;;;;77.53;30.38;;;0.50;99.90;;;;;;5025038;28;20493;-74
2024/01/15 06:07:05;;;;;;;91.05;34.22;;;0.50;99.90;;;;;;5021020;28;20119;-75
2024/01/15 06:09:32;;;;;;;85.57;31.63;;;0.60;99.90;;;;;;5004578;28;20041;-73
2024/01/15 06:11:59;;;;;;;90.68;36.03;;;0.60;99.90;;;;;;5005425;28;20033;-74
2024/01/15 06:14:26;;;;;;;102.40;37.53;;;0.60;99.90;;;;;;5003966;28;20041;-75
2024/01/15 06:16:52;;;;;;;101.22;39.17;;;0.60;99.90;;;;;;5023156;28;20128;-75
2024/01/15 06:19:19;;;;;;;109.45;41.53;;;0.60;99.90;;;;;;5022651;28;20051;-74
2024/01/15 06:21:46;;;;;;;114.38;41.03;;;0.70;99.90;;;;;;5028438;28;20076;-73
2024/01/15 06:24:14;;;;;;;91.90;37.45;;;0.60;99.90;;;;;;5052418;28;20032;-72
2024/01/15 06:26:41;;;;;;;111.28;41.08;;;0.60;99.90;;;;;;5064695;28;20052;-74
2024/01/15 06:29:08;;;;;;;90.88;34.42;;;0.60;99.90;;;;;;5034849;28;20146;-74
2024/01/15 06:31:35;;;;;;;80.20;34.97;;;0.60;99.90;;;;;;5031187;28;20043;-75
2024/01/15 06:34:01;;;;;;;90.60;35.30;;;0.60;99.90;;;;;;5026149;28;20049;-75
2024/01/15 06:36:28;;;;;;;97.18;37.20;;;0.60;99.90;;;;;;5008339;28;20138;-73
2024/01/15 06:38:55;;;;;;;90.72;34.10;;;0.60;99.90;;;;;;5024863;28;20127;-74
2024/01/15 06:41:22;;;;;;;101.50;40.38;;;0.60;99.90;;;;;;5028710;28;20498;-73
2024/01/15 06:43:49;;;;;;;91.97;33.17;;;0.60;99.90;;;;;;5036606;28;20052;-74
2024/01/15 06:46:21;;;;;;;84.35;33.08;;;0.60;99.90;;;;;;5025525;28;21489;-75
2024/01/15 06:48:48;;;;;;;83.20;34.05;;;0.50;99.90;;;;;;5024860;28;20468;-74
2024/01/15 06:51:16;;;;;;;96.45;38.17;;;0.50;99.90;;;;;;5035988;28;20453;-79
2024/01/15 06:53:42;;;;;;;104.53;36.85;;;0.60;99.90;;;;;;5027292;28;20233;-74
2024/01/15 06:56:09;;;;;;;103.50;40.63;;;0.60;99.90;;;;;;5030579;28;20068;-75
2024/01/15 06:58:36;;;;;;;108.88;43.13;;;0.50;99.90;;;;;;5033915;28;20055;-73
2024/01/15 07:01:04;;;;;;;103.40;38.05;;;0.60;99.90;;;;;;5031816;28;20055;-74
2024/01/15 07:03:32;;;;;;;97.20;37.22;;;0.60;99.90;;;;;;5037589;28;20715;-74
2024/01/15 07:05:59;;;;;;;115.82;41.75;;;0.60;99.90;;;;;;4995240;28;20045;-73
2024/01/15 07:08:26;;;;;;;107.97;41.00;;;0.60;99.90;;;;;;5023699;28;20147;-75
2024/01/15 07:10:53;;;;;;;105.38;39.67;;;0.60;99.90;;;;;;5010035;28;20053;-75
2024/01/15 07:13:20;;;;;;;99.18;37.10;;;0.70;99.90;;;;;;5045858;28;20073;-76
2024/01/15 07:15:47;;;;;;;105.78;39.72;;;0.60;99.90;;;;;;5031167;28;20049;-74
2024/01/15 07:18:13;;;;;;;85.80;33.60;;;0.60;99.90;;;;;;5020810;28;20049;-76
2024/01/15 07:20:40;;;;;;;119.68;39.67;;;0.60;99.90;;;;;;5010228;28;20047;-74
2024/01/15 07:23:07;;;;;;;91.22;34.40;;;0.60;99.90;;;;;;5012070;28;20044;-77
2024/01/15 07:25:34;;;;;;;96.72;37.75;;;0.60;99.90;;;;;;5034939;28;20045;-76
2024/01/15 07:28:00;;;;;;;90.88;37.58;;;0.60;99.90;;;;;;5015032;28;20581;-77
2024/01/15 07:30:27;;;;;;;104.88;37.10;;;0.60;99.90;;;;;;5025163;28;20127;-77
2024/01/15 07:32:54;;;;;;;116.05;39.13;;;0.60;99.90;;;;;;5020314;28;20045;-77
2024/01/15 07:35:21;;;;;;;104.95;39.10;;;0.70;99.90;;;;;;5021473;28;20122;-76
2024/01/15 07:37:48;;;;;;;101.00;37.63;;;0.70;99.90;;;;;;5026196;28;20070;-76
2024/01/15 07:40:16;;;;;;;101.55;38.60;;;0.70;99.90;;;;;;5035670;28;20057;-78
2024/01/15 07:42:43;;;;;;;100.93;37.92;;;0.70;99.90;;;;;;5026905;28;20044;-76
2024/01/15 07:45:10;;;;;;;109.97;40.05;;;0.70;99.90;;;;;;4993928;28;20041;-77
2024/01/15 07:47:37;;;;;;;99.80;40.05;;;0.70;99.90;;;;;;5031051;28;20579;-77
2024/01/15 07:50:04;;;;;;;114.32;40.53;;;0.70;99.90;;;;;;5043381;28;20040;-76
2024/01/15 07:52:32;;;;;;;99.25;36.22;;;0.70;99.90;;;;;;5011377;28;20068;-76
2024/01/15 07:54:59;;;;;;;116.65;41.13;;;0.70;99.90;;;;;;5023573;28;20060;-76
2024/01/15 07:57:27;;;;;;;106.93;40.25;;;0.70;99.90;;;;;;4998237;28;20048;-77
2024/01/15 07:59:54;;;;;;;108.78;37.20;;;0.70;99.90;;;;;;5018165;28;20856;-75
2024/01/15 08:02:21;;;;;;;111.35;41.22;;;0.70;99.90;;;;;;5020460;28;20037;-73
2024/01/15 08:04:48;;;;;;;108.03;39.70;;;0.70;99.90;;;;;;5015625;28;20053;-75
2024/01/15 08:07:15;;;;;;;102.60;37.17;;;0.70;99.90;;;;;;5015745;28;20044;-75
2024/01/15 08:09:42;;;;;;;114.75;39.88;;;0.70;99.90;;;;;;5018774;28;20044;-72
2024/01/15 08:12:09;;;;;;;122.47;43.80;;;0.80;99.90;;;;;;5017719;28;20103;-76
2024/01/15 08:14:36;;;;;;;127.05;43.92;;;0.70;99.90;;;;;;5007206;28;20069;-74
2024/01/15 08:17:03;;;;;;;119.95;42.78;;;0.70;99.90;;;;;;5018320;28;21210;-75
2024/01/15 08:19:30;;;;;;;127.07;41.85;;;0.70;99.90;;;;;;5010483;28;20041;-74
2024/01/15 08:21:57;;;;;;;103.72;37.58;;;0.80;99.90;;;;;;5019284;28;20049;-74
2024/01/15 08:24:24;;;;;;;118.85;41.60;;;0.80;99.90;;;;;;5032896;28;20040;-75
2024/01/15 08:26:51;;;;;;;124.55;41.88;;;0.70;99.90;;;;;;5024798;28;20044;-72
2024/01/15 08:29:20;;;;;;;100.97;38.70;;;0.80;99.90;;;;;;5024336;28;20056;-73
2024/01/15 08:31:47;;;;;;;124.85;41.08;;;0.70;99.90;;;;;;5025496;28;20053;-76
2024/01/15 08:34:14;;;;;;;96.97;38.13;;;0.70;99.90;;;;;;5020568;28;20538;-75
2024/01/15 08:36:41;;;;;;;99.00;33.65;;;0.70;99.90;;;;;;5023314;28;20107;-73
2024/01/15 08:39:08;;;;;;;97.82;34.85;;;0.70;99.90;;;;;;5024729;28;20107;-74
2024/01/15 08:41:35;;;;;;;97.93;36.35;;;0.70;99.90;;;;;;5021816;28;20060;-74
2024/01/15 08:44:02;;;;;;;113.00;38.45;;;0.70;99.90;;;;;;5024923;28;20057;-74
2024/01/15 08:46:30;;;;;;;89.20;31.42;;;0.80;99.90;;;;;;5054270;28;20048;-75
2024/01/15 08:48:56;;;;;;;92.60;30.70;;;0.80;99.90;;;;;;5028104;28;20077;-74
2024/01/15 08:51:23;;;;;;;85.55;33.70;;;0.80;99.90;;;;;;5025100;28;20060;-75
2024/01/15 08:53:50;;;;;;;68.05;26.75;;;0.80;99.90;;;;;;5002850;28;20048;-73
2024/01/15 08:56:17;;;;;;;71.15;28.42;;;0.80;99.90;;;;;;5025382;28;20051;-75
2024/01/15 08:58:45;;;;;;;77.30;30.33;;;0.70;99.90;;;;;;5031390;28;20072;-73
2024/01/15 09:01:12;;;;;;;93.25;34.22;;;0.80;99.90;;;;;;4996722;28;20041;-75
2024/01/15 09:03:42;;;;;;;93.63;32.65;;;0.70;99.90;;;;;;5008688;28;20041;-75
2024/01/15 09:06:09;;;;;;;94.72;34.08;;;0.80;99.90;;;;;;4998156;28;20040;-75
2024/01/15 09:08:36;;;;;;;83.50;34.63;;;0.80;99.90;;;;;;4994277;28;20057;-76
2024/01/15 09:11:03;;;;;;;81.35;32.80;;;0.80;99.90;;;;;;5023031;28;20052;-75
2024/01/15 09:13:31;;;;;;;104.57;39.17;;;0.80;99.90;;;;;;5022498;28;20110;-75
2024/01/15 09:15:59;;;;;;;101.95;37.78;;;0.80;99.90;;;;;;5039313;28;20060;-76
2024/01/15 09:18:26;;;;;;;105.65;39.17;;;0.80;99.90;;;;;;5014143;28;20052;-76
2024/01/15 09:20:53;;;;;;;110.18;39.28;;;0.80;99.90;;;;;;5019586;28;20158;-75
2024/01/15 09:23:19;;;;;;;116.90;41.83;;;0.70;99.90;;;;;;5021408;28;20049;-75
2024/01/15 09:25:47;;;;;;;109.68;39.63;;;0.80;99.90;;;;;;5002560;28;20055;-74
2024/01/15 09:28:14;;;;;;;124.90;40.83;;;0.80;99.90;;;;;;5019250;28;20046;-74
2024/01/15 09:30:41;;;;;;;121.90;43.65;;;0.80;99.90;;;;;;5016268;28;20416;-74
2024/01/15 09:33:08;;;;;;;92.82;35.05;;;0.80;99.90;;;;;;5011130;28;20723;-74
2024/01/15 09:35:35;;;;;;;104.78;37.63;;;0.80;99.90;;;;;;4991009;28;20038;-74
2024/01/15 09:38:02;;;;;;;105.70;37.75;;;0.90;99.90;;;;;;5013396;28;20142;-76
2024/01/15 09:40:33;;;;;;;108.50;37.53;;;0.90;99.90;;;;;;5029885;28;20052;-73
2024/01/15 09:43:00;;;;;;;103.07;37.33;;;0.90;99.90;;;;;;5034352;28;20033;-71
2024/01/15 09:45:28;;;;;;;103.97;37.40;;;0.90;99.90;;;;;;5016020;28;20527;-74
2024/01/15 09:47:55;;;;;;;96.78;39.35;;;0.90;99.90;;;;;;5016209;28;20335;-73
2024/01/15 09:50:22;;;;;;;103.55;38.03;;;0.90;99.90;;;;;;5031123;28;20041;-74
2024/01/15 09:52:50;;;;;;;95.75;36.28;;;0.90;99.90;;;;;;5025862;28;20080;-75
2024/01/15 09:55:17;;;;;;;104.93;41.95;;;1.00;99.90;;;;;;5000188;28;20060;-74
2024/01/15 09:57:46;;;;;;;105.28;38.15;;;1.00;99.90;;;;;;5024033;28;20051;-75
2024/01/15 10:00:14;;;;;;;93.28;37.60;;;1.00;99.90;;;;;;5007206;28;20052;-75
2024/01/15 10:02:41;;;;;;;103.18;40.97;;;1.00;99.90;;;;;;5024358;28;20053;-75
2024/01/15 10:05:08;;;;;;;103.63;37.03;;;0.90;99.90;;;;;;5018479;28;20132;-74
2024/01/15 10:07:37;;;;;;;75.40;33.78;;;0.90;99.90;;;;;;5025690;28;20308;-75
2024/01/15 10:10:05;;;;;;;104.20;40.78;;;0.90;99.90;;;;;;5001123;28;20546;-72
2024/01/15 10:12:32;;;;;;;111.13;41.72;;;0.90;99.90;;;;;;5031216;28;20748;-74
2024/01/15 10:14:59;;;;;;;84.57;32.40;;;1.00;99.90;;;;;;5022682;28;20132;-74
2024/01/15 10:17:27;;;;;;;95.70;39.28;;;1.00;99.90;;;;;;5018679;28;20560;-75
2024/01/15 10:19:54;;;;;;;98.95;38.80;;;1.00;99.90;;;;;;5025352;28;20057;-75
2024/01/15 10:22:22;;;;;;;90.03;36.67;;;1.10;99.90;;;;;;5024652;28;20099;-74
2024/01/15 10:24:48;;;;;;;78.85;31.83;;;1.00;99.90;;;;;;5005235;28;20057;-74
2024/01/15 10:27:16;;;;;;;89.55;35.95;;;1.00;99.90;;;;;;5019341;28;20044;-74
2024/01/15 10:29:43;;;;;;;78.57;34.33;;;1.00;99.90;;;;;;5023796;28;20040;-75
2024/01/15 10:32:12;;;;;;;66.15;26.70;;;1.00;99.90;;;;;;5015515;28;20476;-75
2024/01/15 10:34:40;;;;;;;73.13;31.33;;;0.90;99.90;;;;;;5035968;28;20124;-75
2024/01/15 10:37:08;;;;;;;67.75;29.75;;;0.80;99.90;;;;;;5018703;28;20071;-76
2024/01/15 10:39:37;;;;;;;71.85;28.67;;;0.90;99.90;;;;;;5022567;28;20052;-74
2024/01/15 10:42:06;;;;;;;63.92;29.83;;;0.80;99.90;;;;;;5023398;28;20053;-75
2024/01/15 10:44:34;;;;;;;64.28;27.98;;;0.80;99.90;;;;;;5012978;28;20048;-75
2024/01/15 10:47:01;;;;;;;70.25;28.95;;;0.80;99.90;;;;;;5021700;28;20603;-75
2024/01/15 10:49:30;;;;;;;70.50;28.55;;;0.90;99.90;;;;;;5029400;28;20045;-74
2024/01/15 10:52:01;;;;;;;63.42;29.20;;;0.90;99.90;;;;;;5014290;28;20044;-74
2024/01/15 10:54:29;;;;;;;64.03;31.13;;;0.90;99.90;;;;;;5002832;28;20098;-74
2024/01/15 10:56:56;;;;;;;65.65;32.65;;;1.00;99.90;;;;;;4996171;28;20140;-75
2024/01/15 10:59:24;;;;;;;75.30;29.27;;;1.00;99.90;;;;;;5040916;28;20045;-74
2024/01/15 11:01:54;;;;;;;62.22;29.60;;;0.90;99.90;;;;;;5024317;28;20048;-76
2024/01/15 11:04:23;;;;;;;58.45;28.63;;;0.90;99.90;;;;;;5003937;28;20045;-76
2024/01/15 11:06:53;;;;;;;59.72;28.02;;;0.90;99.90;;;;;;5020446;28;20265;-75
2024/01/15 11:09:23;;;;;;;61.03;28.45;;;1.00;99.90;;;;;;5000090;28;20045;-75
2024/01/15 11:12:06;;;;;;;52.50;26.90;;;1.00;99.90;;;;;;5023655;28;20041;-75
2024/01/15 11:14:46;;;;;;;58.90;27.05;;;1.00;99.90;;;;;;5025678;28;20045;-73
2024/01/15 11:17:14;;;;;;;49.72;22.60;;;0.90;99.90;;;;;;5018774;28;20048;-75
2024/01/15 11:19:41;;;;;;;40.40;20.35;;;0.90;99.90;;;;;;5026237;28;20063;-75
2024/01/15 11:22:31;;;;;;;33.22;18.17;;;0.90;99.90;;;;;;5021130;28;20127;-74
2024/01/15 11:25:02;;;;;;;39.58;18.73;;;0.90;99.90;;;;;;5016335;28;20211;-74
2024/01/15 11:27:44;;;;;;;37.92;18.17;;;0.90;99.90;;;;;;5006744;28;20049;-75
2024/01/15 11:30:12;;;;;;;40.08;19.58;;;0.90;99.90;;;;;;5021350;28;20048;-74
2024/01/15 11:32:41;;;;;;;44.58;23.10;;;0.80;99.90;;;;;;5025503;28;20045;-77
2024/01/15 11:35:09;;;;;;;39.05;20.40;;;0.80;99.90;;;;;;5014699;28;20064;-75
2024/01/15 11:37:51;;;;;;;42.45;21.05;;;0.80;99.90;;;;;;5024764;28;20527;-73
2024/01/15 11:40:20;;;;;;;40.28;21.10;;;0.90;99.90;;;;;;5020950;28;20052;-74
2024/01/15 11:42:49;;;;;;;43.05;21.15;;;0.90;99.90;;;;;;5023630;28;20673;-74
2024/01/15 11:45:20;;;;;;;51.83;26.23;;;0.90;99.90;;;;;;5013805;28;20049;-74
2024/01/15 11:48:10;;;;;;;42.17;19.65;;;1.00;99.90;;;;;;5020770;28;20668;-75
2024/01/15 11:50:41;;;;;;;47.47;22.15;;;1.00;99.90;;;;;;5023500;28;20550;-74
2024/01/15 11:53:18;;;;;;;40.17;21.17;;;1.00;99.90;;;;;;5019925;28;20041;-75
2024/01/15 11:55:45;;;;;;;38.03;20.92;;;1.00;99.90;;;;;;5022995;28;20111;-75
2024/01/15 11:58:13;;;;;;;44.85;22.17;;;1.00;99.90;;;;;;5026200;28;20041;-75
2024/01/15 12:00:51;;;;;;;37.97;19.13;;;1.00;99.90;;;;;;5033350;28;20041;-73
2024/01/15 12:03:21;;;;;;;33.25;19.75;;;1.00;99.90;;;;;;5023642;28;20057;-75
2024/01/15 12:05:48;;;;;;;42.38;21.55;;;0.90;99.90;;;;;;5015248;28;20037;-74
2024/01/15 12:08:21;;;;;;;41.50;20.50;;;0.90;99.90;;;;;;4992829;28;20111;-75
2024/01/15 12:10:49;;;;;;;45.33;22.05;;;0.90;99.90;;;;;;5025328;28;20041;-74
2024/01/15 12:13:17;;;;;;;36.63;21.20;;;0.90;99.90;;;;;;5038788;28;20053;-75
2024/01/15 12:15:45;;;;;;;42.28;21.92;;;0.90;99.90;;;;;;5018721;28;20615;-75
2024/01/15 12:18:14;;;;;;;42.13;21.38;;;0.80;99.90;;;;;;5007926;28;20676;-74
2024/01/15 12:20:43;;;;;;;42.30;22.60;;;0.80;99.90;;;;;;5013716;28;20041;-75
2024/01/15 12:23:11;;;;;;;50.40;21.67;;;0.80;99.90;;;;;;5023371;28;20056;-73
2024/01/15 12:25:40;;;;;;;38.67;23.05;;;0.80;99.90;;;;;;5029788;28;20045;-74
2024/01/15 12:28:07;;;;;;;40.30;23.45;;;0.80;99.90;;;;;;5029005;28;20060;-75
2024/01/15 12:30:35;;;;;;;37.42;20.38;;;0.80;99.90;;;;;;5023512;28;20040;-74
2024/01/15 12:33:04;;;;;;;37.90;20.77;;;0.90;99.90;;;;;;5020068;28;20435;-74
2024/01/15 12:35:31;;;;;;;38.25;19.88;;;0.90;99.90;;;;;;5026635;28;20586;-75